createdAt,value
2019-01-04T00:00:45.996Z,103105.66
2019-01-04T00:03:15.826Z,103098.38
2019-01-04T00:05:45.450Z,103103.28
2019-01-04T00:08:15.155Z,103106.33
2019-01-04T00:10:44.884Z,103100.10
2019-01-04T00:13:14.550Z,103109.45
2019-01-04T00:15:44.173Z,103109.09
2019-01-04T00:18:13.905Z,103108.75
2019-01-04T00:20:43.644Z,103100.56
2019-01-04T00:23:13.394Z,103095.23
2019-01-04T00:25:43.009Z,103087.39
2019-01-04T00:28:12.673Z,103087.16
2019-01-04T00:30:42.415Z,103088.64
2019-01-04T00:33:12.114Z,103083.34
2019-01-04T00:35:41.757Z,103081.63
2019-01-04T00:38:11.533Z,103088.77
2019-01-04T00:40:41.230Z,103083.88
2019-01-04T00:43:10.924Z,103085.25
2019-01-04T00:45:40.654Z,103076.77
2019-01-04T00:48:10.331Z,103070.10
2019-01-04T00:50:40.031Z,103064.50
2019-01-04T00:53:09.755Z,103064.14
2019-01-04T00:56:08.815Z,103061.73
2019-01-04T00:59:06.286Z,103060.09
2019-01-04T01:02:12.114Z,103066.91
2019-01-04T01:05:29.001Z,103064.77
2019-01-04T01:09:10.372Z,103070.30
2019-01-04T01:12:32.480Z,103067.19
2019-01-04T01:15:58.499Z,103068.94
2019-01-04T01:18:42.881Z,103065.31
2019-01-04T01:21:25.337Z,103069.05
2019-01-04T01:24:39.559Z,103060.59
2019-01-04T01:27:39.421Z,103063.20
2019-01-04T01:30:44.716Z,103063.52
2019-01-04T01:33:50.064Z,103061.52
2019-01-04T01:36:53.230Z,103059.91
2019-01-04T01:40:07.660Z,103056.62
2019-01-04T01:43:15.954Z,103059.03
2019-01-04T01:46:21.216Z,103072.52
2019-01-04T01:49:17.502Z,103062.89
2019-01-04T01:52:05.439Z,103057.98
2019-01-04T01:54:35.078Z,103057.32
2019-01-04T01:57:04.770Z,103049.34
2019-01-04T01:59:34.468Z,103053.84
2019-01-04T02:02:04.187Z,103052.52
2019-01-04T02:04:33.937Z,103043.99
2019-01-04T02:07:03.716Z,103047.75
2019-01-04T02:09:33.365Z,103044.63
2019-01-04T02:12:02.999Z,103047.69
2019-01-04T02:14:32.731Z,103049.20
2019-01-04T02:17:02.444Z,103043.42
2019-01-04T02:19:32.644Z,103049.11
2019-01-04T02:22:02.319Z,103041.56
2019-01-04T02:24:31.952Z,103044.17
2019-01-04T02:27:01.593Z,103041.62
2019-01-04T02:29:31.222Z,103033.27
2019-01-04T02:32:00.886Z,103028.59
2019-01-04T02:34:30.513Z,103034.00
2019-01-04T02:37:00.237Z,103029.45
2019-01-04T02:39:29.911Z,103031.00
2019-01-04T02:41:59.563Z,103028.72
2019-01-04T02:44:29.210Z,103022.72
2019-01-04T02:46:58.831Z,103020.27
2019-01-04T02:49:34.488Z,103034.11
2019-01-04T02:52:04.094Z,103022.84
2019-01-04T02:54:33.706Z,103016.89
2019-01-04T02:57:03.331Z,103014.69
2019-01-04T02:59:33.045Z,103019.17
2019-01-04T03:02:03.259Z,103020.50
2019-01-04T03:04:32.937Z,103013.99
2019-01-04T03:07:02.588Z,103006.36
2019-01-04T03:09:32.356Z,103008.34
2019-01-04T03:12:02.003Z,102996.28
2019-01-04T03:14:31.641Z,102989.59
2019-01-04T03:17:01.293Z,102981.77
2019-01-04T03:19:30.965Z,102981.05
2019-01-04T03:22:00.574Z,102967.41
2019-01-04T03:24:30.237Z,102967.06
2019-01-04T03:26:59.888Z,102960.88
2019-01-04T03:29:29.496Z,102952.60
2019-01-04T03:31:59.138Z,102952.60
2019-01-04T03:34:28.773Z,102949.25
2019-01-04T03:36:58.390Z,102953.87
2019-01-04T03:39:28.068Z,102946.73
2019-01-04T03:41:57.781Z,102945.31
2019-01-04T03:44:27.437Z,102936.97
2019-01-04T03:46:57.169Z,102926.39
2019-01-04T03:49:26.842Z,102924.38
2019-01-04T03:51:56.552Z,102927.24
2019-01-04T03:54:26.279Z,102929.94
2019-01-04T03:56:55.952Z,102921.21
2019-01-04T03:59:25.585Z,102924.52
2019-01-04T04:01:55.304Z,102908.70
2019-01-04T04:04:24.948Z,102905.01
2019-01-04T04:06:54.655Z,102906.89
2019-01-04T04:09:24.356Z,102910.20
2019-01-04T04:11:54.002Z,102901.33
2019-01-04T04:14:23.643Z,102885.55
2019-01-04T04:16:53.248Z,102873.74
2019-01-04T04:19:22.978Z,102870.87
2019-01-04T04:21:52.624Z,102861.45
2019-01-04T04:24:22.252Z,102854.91
2019-01-04T04:26:51.870Z,102850.84
2019-01-04T04:29:21.554Z,102849.69
2019-01-04T04:31:51.229Z,102858.20
2019-01-04T04:34:20.913Z,102863.38
2019-01-04T04:36:50.536Z,102854.22
2019-01-04T04:39:20.180Z,102853.53
2019-01-04T04:41:49.837Z,102851.78
2019-01-04T04:44:19.435Z,102857.17
2019-01-04T04:46:49.071Z,102855.41
2019-01-04T04:49:18.699Z,102849.39
2019-01-04T04:51:48.327Z,102844.72
2019-01-04T04:54:18.132Z,102835.34
2019-01-04T04:56:47.789Z,102839.14
2019-01-04T04:59:17.407Z,102834.39
2019-01-04T05:01:47.132Z,102839.15
2019-01-04T05:04:16.830Z,102828.80
2019-01-04T05:06:46.477Z,102835.42
2019-01-04T05:09:16.125Z,102831.05
2019-01-04T05:11:45.821Z,102827.42
2019-01-04T05:14:15.497Z,102814.84
2019-01-04T05:16:45.122Z,102811.06
2019-01-04T05:19:14.785Z,102815.81
2019-01-04T05:21:44.509Z,102817.56
2019-01-04T05:24:14.139Z,102815.97
2019-01-04T05:26:43.778Z,102815.67
2019-01-04T05:29:13.528Z,102809.52
2019-01-04T05:31:43.182Z,102806.31
2019-01-04T05:34:12.779Z,102810.01
2019-01-04T05:36:42.587Z,102805.89
2019-01-04T05:39:12.215Z,102795.71
2019-01-04T05:41:41.853Z,102793.13
2019-01-04T05:44:11.516Z,102792.71
2019-01-04T05:46:41.221Z,102798.14
2019-01-04T05:49:10.873Z,102805.84
2019-01-04T05:51:40.523Z,102794.09
2019-01-04T05:54:10.155Z,102795.34
2019-01-04T05:56:39.797Z,102794.02
2019-01-04T05:59:09.435Z,102794.23
2019-01-04T06:01:39.071Z,102788.27
2019-01-04T06:04:08.723Z,102788.84
2019-01-04T06:06:38.373Z,102798.05
2019-01-04T06:09:08.996Z,102792.87
2019-01-04T06:11:38.644Z,102786.10
2019-01-04T06:14:08.272Z,102777.25
2019-01-04T06:16:37.938Z,102770.09
2019-01-04T06:19:07.560Z,102782.14
2019-01-04T06:21:37.239Z,102792.97
2019-01-04T06:24:06.917Z,102782.96
2019-01-04T06:26:36.553Z,102775.82
2019-01-04T06:29:06.173Z,102768.98
2019-01-04T06:31:35.794Z,102772.72
2019-01-04T06:34:05.445Z,102757.50
2019-01-04T06:36:35.155Z,102761.72
2019-01-04T06:39:07.280Z,102753.62
2019-01-04T06:41:37.022Z,102738.54
2019-01-04T06:44:06.660Z,102735.17
2019-01-04T06:46:57.134Z,102731.19
2019-01-04T06:49:26.773Z,102727.61
2019-01-04T06:51:56.452Z,102728.42
2019-01-04T06:55:12.160Z,102729.34
2019-01-04T06:57:41.913Z,102721.55
2019-01-04T07:00:11.879Z,102723.02
2019-01-04T07:02:41.572Z,102717.80
2019-01-04T07:05:11.339Z,102719.44
2019-01-04T07:07:41.071Z,102720.56
2019-01-04T07:10:10.845Z,102727.50
2019-01-04T07:12:40.469Z,102739.12
2019-01-04T07:15:10.146Z,102724.23
2019-01-04T07:17:39.742Z,102714.41
2019-01-04T07:20:12.468Z,102698.92
2019-01-04T07:22:42.103Z,102712.22
2019-01-04T07:25:11.759Z,102720.11
2019-01-04T07:27:41.375Z,102724.23
2019-01-04T07:30:11.094Z,102717.06
2019-01-04T07:32:40.737Z,102715.46
2019-01-04T07:35:10.361Z,102718.52
2019-01-04T07:37:39.975Z,102708.70
2019-01-04T07:40:10.022Z,102701.20
2019-01-04T07:42:39.749Z,102709.03
2019-01-04T07:45:10.795Z,102696.88
2019-01-04T07:47:40.523Z,102699.55
2019-01-04T07:50:10.526Z,102696.95
2019-01-04T07:52:43.104Z,102690.96
2019-01-04T07:55:13.281Z,102689.63
2019-01-04T07:57:43.004Z,102683.67
2019-01-04T08:00:14.390Z,102685.31
2019-01-04T08:02:48.667Z,102681.74
2019-01-04T08:05:28.473Z,102683.98
2019-01-04T08:07:58.188Z,102680.19
2019-01-04T08:10:28.262Z,102672.95
2019-01-04T08:12:57.989Z,102667.72
2019-01-04T08:15:27.704Z,102670.89
2019-01-04T08:17:58.257Z,102674.28
2019-01-04T08:20:27.988Z,102666.59
2019-01-04T08:22:57.639Z,102671.56
2019-01-04T08:25:27.307Z,102673.09
2019-01-04T08:27:57.367Z,102668.57
2019-01-04T08:30:27.057Z,102656.55
2019-01-04T08:32:56.759Z,102657.05
2019-01-04T08:35:26.454Z,102651.34
2019-01-04T08:37:56.115Z,102658.98
2019-01-04T08:40:25.789Z,102655.53
2019-01-04T08:42:55.438Z,102646.76
2019-01-04T08:45:25.137Z,102643.50
2019-01-04T08:47:54.854Z,102644.88
2019-01-04T08:50:24.563Z,102652.85
2019-01-04T08:52:54.204Z,102649.72
2019-01-04T08:55:26.141Z,102651.84
2019-01-04T08:57:55.810Z,102653.27
2019-01-04T09:00:25.519Z,102657.95
2019-01-04T09:02:55.203Z,102642.89
2019-01-04T09:05:24.960Z,102634.96
2019-01-04T09:07:54.576Z,102635.34
2019-01-04T09:10:24.226Z,102627.42
2019-01-04T09:12:53.926Z,102630.78
2019-01-04T09:15:23.643Z,102630.88
2019-01-04T09:17:53.292Z,102626.89
2019-01-04T09:20:23.096Z,102621.11
2019-01-04T09:22:52.744Z,102628.55
2019-01-04T09:25:22.442Z,102628.84
2019-01-04T09:27:52.238Z,102621.38
2019-01-04T09:30:21.849Z,102604.98
2019-01-04T09:32:51.481Z,102613.41
2019-01-04T09:35:21.139Z,102603.99
2019-01-04T09:37:50.751Z,102612.08
2019-01-04T09:40:20.473Z,102603.43
2019-01-04T09:42:50.126Z,102604.48
2019-01-04T09:45:19.818Z,102616.34
2019-01-04T09:47:49.515Z,102611.17
2019-01-04T09:50:19.199Z,102610.03
2019-01-04T09:52:48.810Z,102595.87
2019-01-04T09:55:18.488Z,102598.52
2019-01-04T09:57:48.166Z,102595.95
2019-01-04T10:00:17.787Z,102584.50
2019-01-04T10:02:47.409Z,102574.27
2019-01-04T10:05:17.097Z,102566.33
2019-01-04T10:07:46.826Z,102539.67
2019-01-04T10:10:16.475Z,102543.85
2019-01-04T10:12:46.198Z,102518.09
2019-01-04T10:15:16.827Z,102509.47
2019-01-04T10:17:46.477Z,102497.97
2019-01-04T10:20:16.124Z,102501.78
2019-01-04T10:22:45.822Z,102501.75
2019-01-04T10:25:15.468Z,102500.64
2019-01-04T10:27:45.122Z,102494.95
2019-01-04T10:30:27.879Z,102495.47
2019-01-04T10:32:57.526Z,102494.65
2019-01-04T10:35:27.230Z,102484.03
2019-01-04T10:37:56.981Z,102492.38
2019-01-04T10:40:26.615Z,102484.34
2019-01-04T10:42:56.358Z,102481.83
2019-01-04T10:45:26.116Z,102464.91
2019-01-04T10:47:55.772Z,102463.38
2019-01-04T10:50:25.473Z,102442.27
2019-01-04T10:52:55.192Z,102445.98
2019-01-04T10:55:24.827Z,102434.44
2019-01-04T10:58:00.563Z,102435.45
2019-01-04T11:00:30.291Z,102422.02
2019-01-04T11:02:59.910Z,102437.84
2019-01-04T11:05:29.556Z,102414.84
2019-01-04T11:07:59.257Z,102409.06
2019-01-04T11:10:28.890Z,102408.20
2019-01-04T11:12:58.538Z,102403.41
2019-01-04T11:15:28.257Z,102385.23
2019-01-04T11:17:57.966Z,102383.77
2019-01-04T11:20:39.075Z,102375.12
2019-01-04T11:23:52.890Z,102388.31
2019-01-04T11:26:32.987Z,102386.09
2019-01-04T11:29:39.706Z,102366.61
2019-01-04T11:32:51.151Z,102355.14
2019-01-04T11:36:09.623Z,102341.03
2019-01-04T11:39:32.676Z,102330.90
2019-01-04T11:42:50.838Z,102343.20
2019-01-04T11:45:28.686Z,102361.63
2019-01-04T11:48:58.479Z,102373.98
2019-01-04T11:51:58.936Z,102366.14
2019-01-04T11:54:30.118Z,102351.38
2019-01-04T11:56:59.730Z,102359.49
2019-01-04T11:59:29.371Z,102347.03
2019-01-04T12:01:59.079Z,102340.55
2019-01-04T12:04:28.848Z,102344.89
2019-01-04T12:06:58.524Z,102336.92
2019-01-04T12:09:28.527Z,102322.76
2019-01-04T12:11:58.243Z,102331.58
2019-01-04T12:14:27.928Z,102331.09
2019-01-04T12:17:00.675Z,102322.27
2019-01-04T12:19:30.324Z,102318.59
2019-01-04T12:22:00.007Z,102320.96
2019-01-04T12:24:29.746Z,102321.27
2019-01-04T12:26:59.518Z,102305.29
2019-01-04T12:29:29.167Z,102307.29
2019-01-04T12:31:58.808Z,102291.13
2019-01-04T12:34:28.479Z,102296.14
2019-01-04T12:36:58.135Z,102311.94
2019-01-04T12:39:27.830Z,102298.78
2019-01-04T12:41:57.504Z,102294.31
2019-01-04T12:44:27.174Z,102305.95
2019-01-04T12:46:57.074Z,102301.52
2019-01-04T12:49:26.726Z,102310.46
2019-01-04T12:51:56.443Z,102294.64
2019-01-04T12:54:26.302Z,102289.64
2019-01-04T12:56:55.940Z,102283.98
2019-01-04T12:59:25.646Z,102280.82
2019-01-04T13:01:55.565Z,102289.65
2019-01-04T13:04:25.323Z,102277.34
2019-01-04T13:06:54.982Z,102280.16
2019-01-04T13:09:24.908Z,102279.50
2019-01-04T13:11:54.655Z,102275.36
2019-01-04T13:14:24.346Z,102277.86
2019-01-04T13:16:54.121Z,102266.69
2019-01-04T13:19:25.843Z,102265.35
2019-01-04T13:21:55.251Z,102292.00
2019-01-04T13:24:25.004Z,102285.85
2019-01-04T13:26:54.765Z,102285.34
2019-01-04T13:29:24.491Z,102278.84
2019-01-04T13:31:54.809Z,102284.85
2019-01-04T13:34:24.558Z,102286.34
2019-01-04T13:36:54.181Z,102278.00
2019-01-04T13:39:23.821Z,102276.52
2019-01-04T13:41:53.644Z,102266.70
2019-01-04T13:44:23.296Z,102285.48
2019-01-04T13:46:52.957Z,102288.31
2019-01-04T13:49:25.902Z,102277.48
2019-01-04T13:51:55.661Z,102284.51
2019-01-04T13:54:25.385Z,102287.66
2019-01-04T13:56:55.103Z,102285.00
2019-01-04T13:59:24.711Z,102277.81
2019-01-04T14:01:54.373Z,102263.47
2019-01-04T14:04:24.113Z,102272.47
2019-01-04T14:06:53.767Z,102274.98
2019-01-04T14:09:23.507Z,102274.45
2019-01-04T14:11:53.345Z,102286.12
2019-01-04T14:14:23.027Z,102267.95
2019-01-04T14:16:52.723Z,102275.13
2019-01-04T14:19:22.453Z,102271.78
2019-01-04T14:21:52.128Z,102271.95
2019-01-04T14:24:21.862Z,102281.80
2019-01-04T14:26:51.928Z,102284.42
2019-01-04T14:29:21.554Z,102289.59
2019-01-04T14:31:51.312Z,102283.09
2019-01-04T14:34:21.000Z,102282.44
2019-01-04T14:36:50.686Z,102272.91
2019-01-04T14:39:20.397Z,102274.61
2019-01-04T14:41:50.078Z,102262.44
2019-01-04T14:44:19.814Z,102268.58
2019-01-04T14:46:49.516Z,102266.44
2019-01-04T14:49:19.154Z,102271.41
2019-01-04T14:51:48.795Z,102257.91
2019-01-04T14:54:18.474Z,102259.39
2019-01-04T14:56:48.148Z,102261.91
2019-01-04T14:59:17.905Z,102254.22
2019-01-04T15:01:47.525Z,102250.70
2019-01-04T15:04:17.210Z,102249.20
2019-01-04T15:06:46.928Z,102250.00
2019-01-04T15:09:16.648Z,102256.17
2019-01-04T15:11:46.315Z,102243.17
2019-01-04T15:14:15.959Z,102244.03
2019-01-04T15:16:45.577Z,102236.80
2019-01-04T15:19:15.239Z,102245.20
2019-01-04T15:21:44.949Z,102244.16
2019-01-04T15:24:14.576Z,102240.15
2019-01-04T15:26:44.300Z,102230.50
2019-01-04T15:29:13.944Z,102238.64
2019-01-04T15:31:43.628Z,102237.16
2019-01-04T15:34:13.285Z,102234.09
2019-01-04T15:36:43.023Z,102240.80
2019-01-04T15:39:12.745Z,102230.75
2019-01-04T15:41:42.483Z,102225.77
2019-01-04T15:44:12.096Z,102225.77
2019-01-04T15:46:41.827Z,102216.44
2019-01-04T15:49:11.551Z,102208.93
2019-01-04T15:51:41.263Z,102212.12
2019-01-04T15:54:11.021Z,102214.06
2019-01-04T15:56:40.783Z,102211.55
2019-01-04T15:59:12.948Z,102219.91
2019-01-04T16:01:42.619Z,102214.06
2019-01-04T16:04:12.316Z,102205.86
2019-01-04T16:06:41.975Z,102213.69
2019-01-04T16:09:11.627Z,102214.88
2019-01-04T16:11:41.318Z,102219.73
2019-01-04T16:14:10.994Z,102221.07
2019-01-04T16:16:41.199Z,102221.84
2019-01-04T16:19:11.343Z,102226.88
2019-01-04T16:21:41.466Z,102219.66
2019-01-04T16:24:11.113Z,102221.66
2019-01-04T16:26:40.751Z,102230.53
2019-01-04T16:29:10.417Z,102222.53
2019-01-04T16:31:40.056Z,102220.33
2019-01-04T16:34:09.737Z,102222.63
2019-01-04T16:36:39.501Z,102223.63
2019-01-04T16:39:09.871Z,102217.80
2019-01-04T16:41:39.544Z,102213.27
2019-01-04T16:44:09.199Z,102216.97
2019-01-04T16:46:38.854Z,102217.81
2019-01-04T16:49:08.676Z,102215.42
2019-01-04T16:51:38.426Z,102217.96
2019-01-04T16:54:10.950Z,102223.60
2019-01-04T16:56:41.680Z,102216.91
2019-01-04T16:59:11.356Z,102221.41
2019-01-04T17:01:41.009Z,102217.09
2019-01-04T17:04:10.744Z,102228.23
2019-01-04T17:06:40.493Z,102222.93
2019-01-04T17:09:11.369Z,102219.13
2019-01-04T17:11:41.194Z,102225.59
2019-01-04T17:14:10.834Z,102212.38
2019-01-04T17:16:40.502Z,102216.45
2019-01-04T17:19:10.133Z,102214.73
2019-01-04T17:21:42.841Z,102207.91
2019-01-04T17:24:12.517Z,102212.38
2019-01-04T17:26:42.190Z,102208.08
2019-01-04T17:29:11.840Z,102206.57
2019-01-04T17:31:41.546Z,102211.44
2019-01-04T17:34:11.288Z,102199.62
2019-01-04T17:36:41.013Z,102194.05
2019-01-04T17:39:12.103Z,102199.38
2019-01-04T17:41:41.796Z,102200.05
2019-01-04T17:44:11.427Z,102201.02
2019-01-04T17:46:41.086Z,102185.70
2019-01-04T17:49:10.862Z,102194.88
2019-01-04T17:51:40.772Z,102192.19
2019-01-04T17:54:10.426Z,102203.69
2019-01-04T17:56:40.503Z,102193.97
2019-01-04T17:59:10.187Z,102191.17
2019-01-04T18:01:39.908Z,102186.87
2019-01-04T18:04:09.645Z,102186.10
2019-01-04T18:06:39.395Z,102188.50
2019-01-04T18:09:09.101Z,102187.86
2019-01-04T18:11:38.774Z,102206.45
2019-01-04T18:14:08.588Z,102188.33
2019-01-04T18:16:38.263Z,102174.76
2019-01-04T18:19:07.906Z,102176.01
2019-01-04T18:21:37.601Z,102178.55
2019-01-04T18:24:07.301Z,102177.45
2019-01-04T18:26:37.020Z,102177.28
2019-01-04T18:29:06.749Z,102169.06
2019-01-04T18:31:36.567Z,102175.39
2019-01-04T18:34:06.324Z,102176.01
2019-01-04T18:36:36.376Z,102174.70
2019-01-04T18:39:06.990Z,102174.38
2019-01-04T18:41:36.931Z,102173.86
2019-01-04T18:44:06.613Z,102169.73
2019-01-04T18:46:36.289Z,102172.03
2019-01-04T18:49:06.068Z,102168.86
2019-01-04T18:51:35.739Z,102167.38
2019-01-04T18:54:05.499Z,102177.87
2019-01-04T18:56:35.766Z,102175.11
2019-01-04T18:59:05.601Z,102178.16
2019-01-04T19:01:35.293Z,102180.69
2019-01-04T19:04:05.039Z,102177.63
2019-01-04T19:06:34.707Z,102174.44
2019-01-04T19:09:05.765Z,102177.38
2019-01-04T19:11:35.475Z,102172.52
2019-01-04T19:14:05.174Z,102162.22
2019-01-04T19:16:34.919Z,102158.27
2019-01-04T19:19:04.629Z,102149.23
2019-01-04T19:21:34.306Z,102145.52
2019-01-04T19:24:04.197Z,102148.92
2019-01-04T19:26:33.873Z,102150.26
2019-01-04T19:29:03.938Z,102132.89
2019-01-04T19:31:33.653Z,102140.91
2019-01-04T19:34:03.362Z,102128.51
2019-01-04T19:36:33.016Z,102121.69
2019-01-04T19:39:02.958Z,102144.39
2019-01-04T19:41:32.748Z,102129.35
2019-01-04T19:44:02.415Z,102139.77
2019-01-04T19:46:32.486Z,102124.09
2019-01-04T19:49:02.248Z,102109.42
2019-01-04T19:51:32.027Z,102106.23
2019-01-04T19:54:01.755Z,102103.27
2019-01-04T19:56:31.532Z,102094.31
2019-01-04T19:59:01.297Z,102091.64
2019-01-04T20:01:31.071Z,102102.11
2019-01-04T20:04:01.239Z,102085.34
2019-01-04T20:07:33.163Z,102088.23
2019-01-04T20:11:00.556Z,102086.44
2019-01-04T20:14:23.990Z,102082.99
2019-01-04T20:17:12.425Z,102077.19
2019-01-04T20:20:03.362Z,102071.85
2019-01-04T20:22:51.006Z,102072.77
2019-01-04T20:25:43.729Z,102061.05
2019-01-04T20:28:27.570Z,102067.28
2019-01-04T20:31:23.673Z,102064.64
2019-01-04T20:34:17.338Z,102051.38
2019-01-04T20:37:05.089Z,102045.83
2019-01-04T20:40:09.249Z,102033.94
2019-01-04T20:43:06.824Z,102040.09
2019-01-04T20:45:58.542Z,102030.56
2019-01-04T20:48:47.343Z,102027.31
2019-01-04T20:51:36.047Z,102023.84
2019-01-04T20:54:23.337Z,102017.70
2019-01-04T20:57:24.171Z,102021.80
2019-01-04T21:00:31.197Z,102005.36
2019-01-04T21:03:14.688Z,102006.96
2019-01-04T21:06:02.099Z,102003.53
2019-01-04T21:08:48.826Z,102009.36
2019-01-04T21:11:40.765Z,102004.96
2019-01-04T21:14:28.274Z,101995.16
2019-01-04T21:17:32.188Z,101996.05
2019-01-04T21:20:21.220Z,101988.70
2019-01-04T21:23:10.206Z,101987.09
2019-01-04T21:26:11.457Z,101999.88
2019-01-04T21:29:04.104Z,101984.69
2019-01-04T21:31:54.465Z,101979.88
2019-01-04T21:34:49.833Z,101979.66
2019-01-04T21:37:39.204Z,101981.83
2019-01-04T21:40:34.006Z,101975.23
2019-01-04T21:43:30.358Z,101983.43
2019-01-04T21:46:17.915Z,101976.80
2019-01-04T21:49:15.931Z,101982.09
2019-01-04T21:52:02.997Z,101975.77
2019-01-04T21:55:03.507Z,101982.62
2019-01-04T21:58:22.946Z,101989.03
2019-01-04T22:01:21.566Z,101982.87
2019-01-04T22:04:15.518Z,101980.00
2019-01-04T22:07:19.806Z,101969.48
2019-01-04T22:10:15.076Z,101986.73
2019-01-04T22:13:14.774Z,101968.33
2019-01-04T22:16:08.208Z,101968.22
2019-01-04T22:19:15.647Z,101972.86
2019-01-04T22:22:10.795Z,101971.34
2019-01-04T22:25:05.406Z,101963.32
2019-01-04T22:27:57.105Z,101963.01
2019-01-04T22:30:41.228Z,101958.81
2019-01-04T22:33:38.055Z,101945.17
2019-01-04T22:36:25.509Z,101943.83
2019-01-04T22:39:14.707Z,101941.14
2019-01-04T22:42:02.315Z,101925.33
2019-01-04T22:44:50.094Z,101924.49
2019-01-04T22:47:37.387Z,101912.27
2019-01-04T22:50:29.143Z,101920.48
2019-01-04T22:53:28.403Z,101915.38
2019-01-04T22:56:28.246Z,101899.09
2019-01-04T22:59:16.956Z,101911.84
2019-01-04T23:02:08.297Z,101912.39
2019-01-04T23:05:12.159Z,101903.94
2019-01-04T23:08:01.754Z,101905.28
2019-01-04T23:10:53.330Z,101909.16
2019-01-04T23:13:50.961Z,101903.02
2019-01-04T23:16:42.392Z,101897.56
2019-01-04T23:19:35.151Z,101907.09
2019-01-04T23:22:33.239Z,101894.84
2019-01-04T23:25:21.623Z,101894.09
2019-01-04T23:28:29.805Z,101892.75
2019-01-04T23:31:28.160Z,101877.91
2019-01-04T23:34:15.205Z,101886.75
2019-01-04T23:37:06.720Z,101883.39
2019-01-04T23:40:00.040Z,101878.35
2019-01-04T23:42:55.699Z,101869.11
2019-01-04T23:45:59.252Z,101861.34
2019-01-04T23:48:53.398Z,101864.23
2019-01-04T23:51:51.898Z,101847.09
2019-01-04T23:54:56.304Z,101857.20
2019-01-04T23:57:44.059Z,101849.30
